createdAt,value
2022-09-04T00:02:00.714Z,95167.34
2022-09-04T00:04:43.473Z,95163.31
2022-09-04T00:07:18.814Z,95175.09
2022-09-04T00:10:13.106Z,95163.78
2022-09-04T00:12:48.825Z,95168.03
2022-09-04T00:15:25.919Z,95169.66
2022-09-04T00:18:09.645Z,95165.97
2022-09-04T00:20:45.840Z,95170.31
2022-09-04T00:23:18.514Z,95169.81
2022-09-04T00:26:17.347Z,95180.25
2022-09-04T00:28:55.355Z,95179.44
2022-09-04T00:31:38.744Z,95182.53
2022-09-04T00:34:18.836Z,95177.66
2022-09-04T00:36:50.823Z,95178.91
2022-09-04T00:39:28.710Z,95185.06
2022-09-04T00:42:04.757Z,95185.41
2022-09-04T00:44:56.429Z,95186.41
2022-09-04T00:47:26.211Z,95191.00
2022-09-04T00:50:11.950Z,95189.31
2022-09-04T00:53:26.098Z,95190.22
2022-09-04T00:56:07.578Z,95189.56
2022-09-04T00:58:59.178Z,95193.16
2022-09-04T01:01:27.637Z,95197.22
2022-09-04T01:04:13.833Z,95198.09
2022-09-04T01:06:50.940Z,95197.69
2022-09-04T01:09:17.679Z,95199.53
2022-09-04T01:11:53.311Z,95205.38
2022-09-04T01:14:53.093Z,95195.00
2022-09-04T01:17:41.689Z,95200.78
2022-09-04T01:21:00.293Z,95197.88
2022-09-04T01:23:52.507Z,95199.69
2022-09-04T01:26:47.978Z,95202.50
2022-09-04T01:29:45.447Z,95206.03
2022-09-04T01:32:48.990Z,95211.38
2022-09-04T01:35:36.743Z,95210.53
2022-09-04T01:38:16.631Z,95215.38
2022-09-04T01:41:07.273Z,95213.66
2022-09-04T01:43:34.753Z,95222.63
2022-09-04T01:46:10.282Z,95215.28
2022-09-04T01:49:14.542Z,95217.03
2022-09-04T01:52:16.628Z,95222.22
2022-09-04T01:55:10.911Z,95214.19
2022-09-04T01:58:00.918Z,95217.44
2022-09-04T02:00:33.989Z,95215.00
2022-09-04T02:03:25.383Z,95216.63
2022-09-04T02:06:01.780Z,95226.38
2022-09-04T02:08:41.290Z,95223.22
2022-09-04T02:11:12.234Z,95224.31
2022-09-04T02:13:44.869Z,95222.97
2022-09-04T02:16:15.013Z,95222.00
2022-09-04T02:18:57.475Z,95218.31
2022-09-04T02:21:41.128Z,95228.06
2022-09-04T02:24:35.883Z,95222.13
2022-09-04T02:27:16.285Z,95226.38
2022-09-04T02:29:58.877Z,95218.56
2022-09-04T02:32:28.792Z,95226.00
2022-09-04T02:35:06.589Z,95228.19
2022-09-04T02:37:45.518Z,95221.63
2022-09-04T02:40:30.844Z,95225.03
2022-09-04T02:43:06.546Z,95220.38
2022-09-04T02:45:54.244Z,95218.28
2022-09-04T02:48:28.502Z,95219.28
2022-09-04T02:51:04.447Z,95212.97
2022-09-04T02:53:42.954Z,95213.50
2022-09-04T02:56:21.308Z,95213.16
2022-09-04T02:59:13.162Z,95216.25
2022-09-04T03:02:01.505Z,95221.13
2022-09-04T03:04:52.420Z,95214.97
2022-09-04T03:07:33.251Z,95217.09
2022-09-04T03:10:06.967Z,95215.81
2022-09-04T03:12:54.790Z,95219.69
2022-09-04T03:15:31.370Z,95219.03
2022-09-04T03:18:36.808Z,95219.97
2022-09-04T03:21:39.364Z,95223.19
2022-09-04T03:24:15.842Z,95227.75
2022-09-04T03:26:48.423Z,95232.63
2022-09-04T03:29:39.496Z,95236.00
2022-09-04T03:32:47.524Z,95249.13
2022-09-04T03:35:14.047Z,95244.75
2022-09-04T03:37:49.979Z,95246.63
2022-09-04T03:40:42.921Z,95239.50
2022-09-04T03:43:43.689Z,95246.16
2022-09-04T03:46:28.850Z,95246.66
2022-09-04T03:48:58.519Z,95246.66
2022-09-04T03:51:59.196Z,95241.97
2022-09-04T03:54:51.582Z,95250.88
2022-09-04T03:57:49.014Z,95258.44
2022-09-04T04:00:19.963Z,95249.25
2022-09-04T04:02:52.675Z,95257.38
2022-09-04T04:05:36.908Z,95262.38
2022-09-04T04:08:31.187Z,95253.16
2022-09-04T04:11:35.453Z,95261.91
2022-09-04T04:14:35.413Z,95255.94
2022-09-04T04:17:23.811Z,95265.31
2022-09-04T04:20:12.285Z,95269.16
2022-09-04T04:22:57.233Z,95265.13
2022-09-04T04:25:39.127Z,95274.34
2022-09-04T04:28:09.187Z,95274.50
2022-09-04T04:30:54.912Z,95283.09
2022-09-04T04:33:33.818Z,95283.09
2022-09-04T04:36:13.182Z,95285.84
2022-09-04T04:39:01.357Z,95284.22
2022-09-04T04:42:06.552Z,95283.25
2022-09-04T04:45:05.645Z,95283.56
2022-09-04T04:48:01.537Z,95292.75
2022-09-04T04:50:40.281Z,95292.91
2022-09-04T04:53:24.829Z,95301.34
2022-09-04T04:56:03.855Z,95302.00
2022-09-04T04:58:42.345Z,95300.19
2022-09-04T05:02:07.685Z,95306.53
2022-09-04T05:04:52.402Z,95316.38
2022-09-04T05:07:34.647Z,95314.28
2022-09-04T05:10:11.948Z,95314.06
2022-09-04T05:13:02.298Z,95324.59
2022-09-04T05:16:08.896Z,95326.69
2022-09-04T05:18:48.549Z,95326.84
2022-09-04T05:21:36.447Z,95328.25
2022-09-04T05:24:05.556Z,95336.69
2022-09-04T05:27:17.983Z,95333.63
2022-09-04T05:30:06.397Z,95344.47
2022-09-04T05:33:14.179Z,95348.72
2022-09-04T05:36:20.187Z,95351.94
2022-09-04T05:39:09.717Z,95349.53
2022-09-04T05:42:15.080Z,95351.88
2022-09-04T05:45:32.736Z,95353.44
2022-09-04T05:48:07.032Z,95350.88
2022-09-04T05:50:48.523Z,95361.94
2022-09-04T05:53:36.624Z,95354.03
2022-09-04T05:56:12.277Z,95364.09
2022-09-04T05:59:03.503Z,95370.47
2022-09-04T06:01:55.474Z,95369.22
2022-09-04T06:04:50.595Z,95376.22
2022-09-04T06:07:26.433Z,95377.22
2022-09-04T06:09:59.602Z,95374.78
2022-09-04T06:13:05.096Z,95381.13
2022-09-04T06:15:38.071Z,95382.09
2022-09-04T06:19:04.207Z,95389.69
2022-09-04T06:21:39.906Z,95392.75
2022-09-04T06:24:25.170Z,95399.00
2022-09-04T06:27:21.335Z,95397.38
2022-09-04T06:30:03.208Z,95394.66
2022-09-04T06:32:36.853Z,95392.50
2022-09-04T06:35:40.672Z,95398.41
2022-09-04T06:38:27.413Z,95393.44
2022-09-04T06:41:15.346Z,95396.91
2022-09-04T06:44:00.837Z,95399.25
2022-09-04T06:46:56.956Z,95404.19
2022-09-04T06:49:35.385Z,95403.69
2022-09-04T06:52:14.349Z,95413.16
2022-09-04T06:54:56.204Z,95409.00
2022-09-04T06:57:38.740Z,95417.03
2022-09-04T07:00:14.233Z,95417.72
2022-09-04T07:02:47.005Z,95411.97
2022-09-04T07:05:13.671Z,95424.66
2022-09-04T07:07:48.537Z,95417.09
2022-09-04T07:10:37.287Z,95415.31
2022-09-04T07:13:29.011Z,95420.25
2022-09-04T07:16:14.598Z,95428.72
2022-09-04T07:18:50.186Z,95423.03
2022-09-04T07:21:30.489Z,95431.84
2022-09-04T07:24:20.491Z,95426.97
2022-09-04T07:27:04.004Z,95431.34
2022-09-04T07:29:37.435Z,95431.78
2022-09-04T07:32:08.280Z,95436.56
2022-09-04T07:34:51.141Z,95440.78
2022-09-04T07:37:27.686Z,95437.53
2022-09-04T07:40:00.507Z,95436.84
2022-09-04T07:42:31.187Z,95436.53
2022-09-04T07:45:06.650Z,95431.13
2022-09-04T07:47:42.366Z,95434.78
2022-09-04T07:50:27.078Z,95448.97
2022-09-04T07:53:19.766Z,95451.81
2022-09-04T07:55:48.277Z,95458.28
2022-09-04T07:58:24.711Z,95461.66
2022-09-04T08:00:51.619Z,95462.88
2022-09-04T08:03:33.408Z,95461.03
2022-09-04T08:06:11.677Z,95463.50
2022-09-04T08:09:07.276Z,95467.56
2022-09-04T08:11:39.837Z,95471.41
2022-09-04T08:14:12.209Z,95475.69
2022-09-04T08:16:44.808Z,95471.69
2022-09-04T08:19:11.405Z,95479.06
2022-09-04T08:21:48.202Z,95473.75
2022-09-04T08:24:35.044Z,95475.31
2022-09-04T08:27:20.197Z,95478.72
2022-09-04T08:30:04.170Z,95483.41
2022-09-04T08:33:15.517Z,95480.91
2022-09-04T08:35:49.066Z,95474.78
2022-09-04T08:38:37.101Z,95478.44
2022-09-04T08:41:25.538Z,95485.06
2022-09-04T08:44:07.540Z,95486.69
2022-09-04T08:46:49.450Z,95485.91
2022-09-04T08:49:55.213Z,95492.13
2022-09-04T08:52:50.771Z,95493.28
2022-09-04T08:55:32.667Z,95492.47
2022-09-04T08:58:11.497Z,95495.69
2022-09-04T09:00:56.640Z,95493.56
2022-09-04T09:03:47.450Z,95495.94
2022-09-04T09:06:44.491Z,95504.94
2022-09-04T09:09:35.939Z,95499.09
2022-09-04T09:12:09.438Z,95497.03
2022-09-04T09:14:38.223Z,95506.63
2022-09-04T09:17:16.911Z,95502.88
2022-09-04T09:19:57.158Z,95495.34
2022-09-04T09:22:46.383Z,95495.66
2022-09-04T09:25:17.016Z,95499.38
2022-09-04T09:28:17.877Z,95495.56
2022-09-04T09:31:27.039Z,95488.88
2022-09-04T09:34:28.200Z,95493.34
2022-09-04T09:37:10.237Z,95488.22
2022-09-04T09:40:11.478Z,95485.78
2022-09-04T09:43:05.511Z,95487.31
2022-09-04T09:46:23.299Z,95486.22
2022-09-04T09:49:21.741Z,95483.94
2022-09-04T09:51:55.673Z,95479.72
2022-09-04T09:54:47.234Z,95478.72
2022-09-04T09:57:33.979Z,95478.25
2022-09-04T10:00:14.733Z,95468.19
2022-09-04T10:03:25.987Z,95466.34
2022-09-04T10:06:30.582Z,95474.69
2022-09-04T10:09:18.969Z,95463.66
2022-09-04T10:12:04.174Z,95469.91
2022-09-04T10:14:53.721Z,95473.06
2022-09-04T10:17:42.074Z,95483.38
2022-09-04T10:20:33.411Z,95474.59
2022-09-04T10:23:37.155Z,95472.91
2022-09-04T10:26:19.802Z,95482.56
2022-09-04T10:29:18.526Z,95483.94
2022-09-04T10:31:54.469Z,95484.91
2022-09-04T10:34:50.386Z,95484.84
2022-09-04T10:37:40.242Z,95473.25
2022-09-04T10:40:43.983Z,95479.94
2022-09-04T10:43:49.740Z,95479.97
2022-09-04T10:46:25.220Z,95479.66
2022-09-04T10:49:00.371Z,95478.22
2022-09-04T10:51:51.644Z,95473.88
2022-09-04T10:54:41.168Z,95487.81
2022-09-04T10:57:42.146Z,95486.38
2022-09-04T11:00:50.104Z,95476.81
2022-09-04T11:03:33.243Z,95473.59
2022-09-04T11:06:11.026Z,95471.91
2022-09-04T11:08:56.257Z,95475.41
2022-09-04T11:11:52.861Z,95469.09
2022-09-04T11:14:55.661Z,95478.22
2022-09-04T11:17:54.345Z,95476.81
2022-09-04T11:20:20.943Z,95478.34
2022-09-04T11:22:59.715Z,95471.34
2022-09-04T11:26:06.048Z,95475.47
2022-09-04T11:28:51.738Z,95472.50
2022-09-04T11:31:40.673Z,95467.25
2022-09-04T11:34:33.522Z,95474.38
2022-09-04T11:37:37.369Z,95462.84
2022-09-04T11:40:38.191Z,95469.69
2022-09-04T11:43:11.206Z,95468.75
2022-09-04T11:45:41.524Z,95467.31
2022-09-04T11:48:20.419Z,95468.22
2022-09-04T11:51:10.856Z,95457.44
2022-09-04T11:54:03.616Z,95465.13
2022-09-04T11:56:57.131Z,95460.19
2022-09-04T11:59:44.712Z,95467.06
2022-09-04T12:02:15.631Z,95466.25
2022-09-04T12:04:51.404Z,95463.34
2022-09-04T12:07:48.604Z,95454.56
2022-09-04T12:10:30.193Z,95465.47
2022-09-04T12:13:33.770Z,95457.94
2022-09-04T12:16:18.661Z,95464.16
2022-09-04T12:18:58.404Z,95460.16
2022-09-04T12:21:38.142Z,95459.03
2022-09-04T12:24:31.167Z,95461.38
2022-09-04T12:27:08.179Z,95465.78
2022-09-04T12:29:59.853Z,95460.34
2022-09-04T12:33:00.596Z,95456.41
2022-09-04T12:35:55.686Z,95461.41
2022-09-04T12:38:34.655Z,95459.72
2022-09-04T12:41:09.445Z,95468.28
2022-09-04T12:43:51.388Z,95468.69
2022-09-04T12:46:21.992Z,95466.44
2022-09-04T12:49:00.784Z,95463.81
2022-09-04T12:51:43.215Z,95461.78
2022-09-04T12:54:29.543Z,95461.53
2022-09-04T12:57:20.720Z,95463.41
2022-09-04T13:00:06.004Z,95467.91
2022-09-04T13:02:52.026Z,95462.25
2022-09-04T13:05:32.212Z,95466.00
2022-09-04T13:08:18.283Z,95468.75
2022-09-04T13:10:48.221Z,95462.19
2022-09-04T13:13:34.262Z,95467.78
2022-09-04T13:16:29.726Z,95469.41
2022-09-04T13:19:23.346Z,95476.47
2022-09-04T13:21:59.417Z,95473.19
2022-09-04T13:24:44.489Z,95473.47
2022-09-04T13:27:51.838Z,95477.19
2022-09-04T13:30:26.619Z,95476.84
2022-09-04T13:33:00.017Z,95474.47
2022-09-04T13:35:38.786Z,95476.22
2022-09-04T13:38:43.387Z,95471.91
2022-09-04T13:41:37.059Z,95472.56
2022-09-04T13:44:04.560Z,95468.97
2022-09-04T13:46:44.246Z,95464.63
2022-09-04T13:49:16.455Z,95475.81
2022-09-04T13:51:54.823Z,95475.63
2022-09-04T13:54:33.958Z,95469.41
2022-09-04T13:57:26.299Z,95469.91
2022-09-04T13:59:55.849Z,95470.22
2022-09-04T14:02:26.891Z,95465.38
2022-09-04T14:05:05.348Z,95468.88
2022-09-04T14:07:36.371Z,95467.91
2022-09-04T14:10:33.985Z,95465.75
2022-09-04T14:13:11.193Z,95465.25
2022-09-04T14:15:46.191Z,95472.31
2022-09-04T14:18:19.078Z,95468.28
2022-09-04T14:21:01.045Z,95468.81
2022-09-04T14:23:55.354Z,95469.66
2022-09-04T14:26:36.416Z,95470.94
2022-09-04T14:29:22.436Z,95470.34
2022-09-04T14:31:56.337Z,95475.22
2022-09-04T14:34:46.554Z,95478.88
2022-09-04T14:37:14.096Z,95473.31
2022-09-04T14:40:02.704Z,95471.56
2022-09-04T14:42:58.524Z,95467.59
2022-09-04T14:45:41.930Z,95470.66
2022-09-04T14:48:13.886Z,95478.34
2022-09-04T14:50:57.987Z,95475.44
2022-09-04T14:53:32.163Z,95479.75
2022-09-04T14:56:29.441Z,95471.19
2022-09-04T14:59:23.933Z,95475.44
2022-09-04T15:02:01.670Z,95466.34
2022-09-04T15:04:36.470Z,95464.00
2022-09-04T15:07:21.466Z,95468.97
2022-09-04T15:09:50.062Z,95467.13
2022-09-04T15:12:29.240Z,95457.38
2022-09-04T15:15:24.492Z,95453.66
2022-09-04T15:18:04.909Z,95463.53
2022-09-04T15:20:37.447Z,95454.88
2022-09-04T15:23:24.892Z,95466.69
2022-09-04T15:26:20.269Z,95466.75
2022-09-04T15:28:51.908Z,95462.44
2022-09-04T15:31:42.260Z,95467.59
2022-09-04T15:34:11.135Z,95470.56
2022-09-04T15:36:39.173Z,95462.13
2022-09-04T15:39:18.513Z,95462.81
2022-09-04T15:41:48.476Z,95465.00
2022-09-04T15:44:15.672Z,95469.72
2022-09-04T15:47:04.778Z,95464.25
2022-09-04T15:49:47.574Z,95463.22
2022-09-04T15:52:30.965Z,95467.00
2022-09-04T15:55:06.237Z,95463.03
2022-09-04T15:58:08.914Z,95466.53
2022-09-04T16:00:40.820Z,95466.63
2022-09-04T16:03:15.892Z,95468.94
2022-09-04T16:05:54.723Z,95470.94
2022-09-04T16:08:32.100Z,95472.09
2022-09-04T16:11:24.037Z,95476.06
2022-09-04T16:13:50.954Z,95471.50
2022-09-04T16:16:25.039Z,95470.91
2022-09-04T16:19:03.833Z,95467.91
2022-09-04T16:22:15.422Z,95470.66
2022-09-04T16:24:48.368Z,95475.78
2022-09-04T16:27:23.275Z,95479.88
2022-09-04T16:29:55.714Z,95475.59
2022-09-04T16:32:25.341Z,95486.31
2022-09-04T16:35:21.763Z,95480.06
2022-09-04T16:38:04.744Z,95481.53
2022-09-04T16:40:37.876Z,95483.31
2022-09-04T16:43:17.139Z,95480.78
2022-09-04T16:45:51.206Z,95488.53
2022-09-04T16:48:34.737Z,95483.78
2022-09-04T16:51:15.912Z,95485.66
2022-09-04T16:54:11.567Z,95484.63
2022-09-04T16:56:40.659Z,95481.25
2022-09-04T16:59:30.099Z,95482.31
2022-09-04T17:01:57.217Z,95487.66
2022-09-04T17:04:40.063Z,95486.25
2022-09-04T17:07:07.712Z,95488.31
2022-09-04T17:09:42.193Z,95493.44
2022-09-04T17:12:44.363Z,95493.31
2022-09-04T17:15:33.422Z,95488.31
2022-09-04T17:18:06.692Z,95493.78
2022-09-04T17:22:57.703Z,95488.50
2022-09-04T17:28:59.851Z,95494.56
2022-09-04T17:29:22.315Z,95493.97
2022-09-04T17:29:53.157Z,95482.56
2022-09-04T17:36:23.596Z,95496.03
2022-09-04T17:40:33.703Z,95495.19
2022-09-04T17:40:53.291Z,95494.59
2022-09-04T17:42:08.196Z,95497.75
2022-09-04T17:45:01.171Z,95505.47
2022-09-04T17:47:43.100Z,95508.31
2022-09-04T17:50:17.424Z,95510.53
2022-09-04T17:53:34.105Z,95509.47
2022-09-04T17:56:24.426Z,95507.13
2022-09-04T17:59:03.194Z,95515.69
2022-09-04T18:01:38.244Z,95518.38
2022-09-04T18:04:33.756Z,95528.41
2022-09-04T18:08:07.996Z,95530.53
2022-09-04T18:10:34.288Z,95531.81
2022-09-04T18:13:36.903Z,95540.69
2022-09-04T18:16:18.257Z,95545.47
2022-09-04T18:19:27.299Z,95541.47
2022-09-04T18:22:26.085Z,95543.31
2022-09-04T18:25:14.301Z,95547.81
2022-09-04T18:28:11.853Z,95552.31
2022-09-04T18:37:09.599Z,95539.63
2022-09-04T18:37:16.734Z,95558.44
2022-09-04T18:37:44.351Z,95553.00
2022-09-04T18:40:12.622Z,95559.38
2022-09-04T18:49:29.703Z,95557.66
2022-09-04T18:50:36.248Z,95560.97
2022-09-04T18:50:41.262Z,95563.59
2022-09-04T18:51:32.719Z,95566.84
2022-09-04T18:54:21.503Z,95570.53
2022-09-04T18:56:53.707Z,95574.03
2022-09-04T18:59:25.036Z,95570.06
2022-09-04T19:02:23.040Z,95570.09
2022-09-04T19:04:58.920Z,95571.09
2022-09-04T19:07:31.966Z,95574.19
2022-09-04T19:10:06.037Z,95577.69
2022-09-04T19:12:47.484Z,95575.78
2022-09-04T19:15:22.812Z,95575.06
2022-09-04T19:18:13.926Z,95569.66
2022-09-04T19:20:48.556Z,95567.91
2022-09-04T19:23:28.012Z,95574.63
2022-09-04T19:26:00.255Z,95574.22
2022-09-04T19:28:52.946Z,95576.88
2022-09-04T19:31:40.677Z,95573.09
2022-09-04T19:34:43.963Z,95570.13
2022-09-04T19:38:55.840Z,95573.22
2022-09-04T19:46:02.084Z,95576.13
2022-09-04T19:46:03.258Z,95572.69
2022-09-04T19:46:40.213Z,95578.66
2022-09-04T19:52:33.572Z,95576.56
2022-09-04T19:53:35.889Z,95578.72
2022-09-04T19:55:24.968Z,95574.97
2022-09-04T19:58:31.143Z,95582.19
2022-09-04T20:01:00.706Z,95573.53
2022-09-04T20:03:33.436Z,95572.56
2022-09-04T20:06:21.595Z,95576.94
2022-09-04T20:09:23.822Z,95574.53
2022-09-04T20:11:54.001Z,95579.41
2022-09-04T20:14:42.613Z,95576.16
2022-09-04T20:17:33.681Z,95572.16
2022-09-04T20:20:34.221Z,95572.81
2022-09-04T20:23:34.159Z,95574.59
2022-09-04T20:26:03.286Z,95570.72
2022-09-04T20:28:44.307Z,95569.72
2022-09-04T20:31:36.196Z,95569.59
2022-09-04T20:34:21.334Z,95570.91
2022-09-04T20:36:55.439Z,95576.72
2022-09-04T20:39:34.939Z,95568.94
2022-09-04T20:42:09.991Z,95576.72
2022-09-04T20:46:52.694Z,95572.03
2022-09-04T20:52:49.952Z,95572.97
2022-09-04T20:53:05.101Z,95574.28
2022-09-04T20:54:23.566Z,95564.53
2022-09-04T21:02:02.524Z,95573.47
2022-09-04T21:03:24.717Z,95571.66
2022-09-04T21:03:35.452Z,95574.88
2022-09-04T21:06:12.852Z,95579.25
2022-09-04T21:08:42.228Z,95578.47
2022-09-04T21:11:41.075Z,95573.91
2022-09-04T21:14:21.505Z,95583.63
2022-09-04T21:17:29.269Z,95581.19
2022-09-04T21:20:20.865Z,95579.88
2022-09-04T21:23:13.860Z,95582.13
2022-09-04T21:26:18.298Z,95582.94
2022-09-04T21:29:10.824Z,95586.03
2022-09-04T21:31:53.884Z,95590.75
2022-09-04T21:35:11.485Z,95592.84
2022-09-04T21:37:54.339Z,95591.53
2022-09-04T21:40:51.034Z,95603.84
2022-09-04T21:43:22.437Z,95600.75
2022-09-04T21:46:17.010Z,95597.03
2022-09-04T21:48:47.036Z,95601.72
2022-09-04T21:51:29.689Z,95606.69
2022-09-04T21:54:02.224Z,95603.59
2022-09-04T22:02:29.002Z,95599.19
2022-09-04T22:02:37.800Z,95596.59
2022-09-04T22:03:02.705Z,95601.63
2022-09-04T22:05:47.311Z,95608.91
2022-09-04T22:13:26.663Z,95602.13
2022-09-04T22:13:41.543Z,95601.78
2022-09-04T22:14:44.942Z,95603.59
2022-09-04T22:17:40.539Z,95598.25
2022-09-04T22:20:27.954Z,95599.25
2022-09-04T22:23:39.016Z,95601.63
2022-09-04T22:26:23.637Z,95607.81
2022-09-04T22:28:56.803Z,95605.06
2022-09-04T22:31:24.434Z,95613.50
2022-09-04T22:34:18.487Z,95613.66
2022-09-04T22:37:14.988Z,95605.63
2022-09-04T22:40:06.285Z,95607.16
2022-09-04T22:42:42.046Z,95603.56
2022-09-04T22:45:29.713Z,95607.00
2022-09-04T22:48:10.503Z,95602.09
2022-09-04T22:50:50.988Z,95601.31
2022-09-04T22:53:55.315Z,95597.22
2022-09-04T22:57:01.488Z,95608.69
2022-09-04T22:59:52.480Z,95604.19
2022-09-04T23:03:04.124Z,95604.94
2022-09-04T23:06:08.837Z,95603.56
2022-09-04T23:13:44.263Z,95599.41
2022-09-04T23:14:01.900Z,95607.94
2022-09-04T23:15:17.142Z,95606.78
2022-09-04T23:18:05.788Z,95606.72
2022-09-04T23:26:37.898Z,95603.44
2022-09-04T23:26:45.331Z,95598.00
2022-09-04T23:27:38.095Z,95599.53
2022-09-04T23:30:11.732Z,95601.09
2022-09-04T23:33:00.565Z,95597.03
2022-09-04T23:35:48.969Z,95592.50
2022-09-04T23:38:27.664Z,95587.06
2022-09-04T23:41:17.742Z,95590.75
2022-09-04T23:44:05.791Z,95591.72
2022-09-04T23:46:32.895Z,95588.38
2022-09-04T23:49:07.089Z,95588.69
2022-09-04T23:51:55.363Z,95580.09
2022-09-04T23:54:43.754Z,95581.44
2022-09-04T23:57:26.612Z,95580.47
